createdAt,value
2022-11-14T00:00:26.564Z,24.17
2022-11-14T00:02:53.455Z,19.20
2022-11-14T00:05:20.255Z,23.15
2022-11-14T00:07:47.328Z,23.02
2022-11-14T00:10:15.055Z,23.73
2022-11-14T00:12:41.507Z,22.58
2022-11-14T00:15:08.573Z,19.65
2022-11-14T00:17:34.944Z,24.80
2022-11-14T00:20:01.320Z,24.08
2022-11-14T00:22:27.699Z,26.48
2022-11-14T00:24:54.066Z,25.23
2022-11-14T00:27:20.419Z,28.25
2022-11-14T00:29:46.843Z,29.13
2022-11-14T00:32:13.207Z,25.48
2022-11-14T00:34:39.557Z,30.00
2022-11-14T00:37:05.933Z,27.15
2022-11-14T00:39:32.300Z,30.52
2022-11-14T00:41:58.704Z,29.70
2022-11-14T00:44:25.080Z,31.00
2022-11-14T00:46:51.439Z,31.13
2022-11-14T00:49:17.815Z,32.40
2022-11-14T00:51:44.184Z,33.20
2022-11-14T00:54:10.592Z,30.92
2022-11-14T00:56:36.960Z,35.20
2022-11-14T00:59:03.340Z,32.53
2022-11-14T01:01:29.724Z,35.17
2022-11-14T01:03:56.316Z,32.42
2022-11-14T01:06:22.784Z,36.58
2022-11-14T01:08:51.224Z,36.33
2022-11-14T01:11:20.803Z,34.47
2022-11-14T01:13:47.755Z,39.25
2022-11-14T01:16:14.114Z,36.30
2022-11-14T01:18:40.998Z,35.50
2022-11-14T01:21:12.877Z,37.53
2022-11-14T01:23:39.839Z,37.83
2022-11-14T01:26:13.928Z,36.88
2022-11-14T01:28:41.037Z,37.38
2022-11-14T01:31:18.972Z,37.10
2022-11-14T01:33:48.830Z,36.88
2022-11-14T01:36:15.191Z,40.25
2022-11-14T01:38:41.572Z,36.80
2022-11-14T01:41:07.925Z,37.53
2022-11-14T01:43:36.261Z,36.10
2022-11-14T01:46:07.630Z,39.30
2022-11-14T01:48:47.199Z,41.78
2022-11-14T01:51:17.221Z,36.35
2022-11-14T01:53:44.423Z,40.17
2022-11-14T01:56:13.830Z,38.28
2022-11-14T01:58:42.304Z,39.17
2022-11-14T02:01:08.705Z,41.55
2022-11-14T02:03:37.599Z,42.15
2022-11-14T02:06:04.830Z,40.67
2022-11-14T02:08:31.741Z,46.83
2022-11-14T02:10:58.332Z,42.90
2022-11-14T02:13:24.707Z,43.00
2022-11-14T02:15:51.968Z,43.85
2022-11-14T02:18:18.323Z,43.15
2022-11-14T02:20:44.685Z,44.35
2022-11-14T02:23:11.934Z,41.92
2022-11-14T02:25:39.307Z,42.75
2022-11-14T02:28:06.875Z,42.85
2022-11-14T02:30:33.662Z,44.40
2022-11-14T02:33:15.275Z,41.67
2022-11-14T02:35:41.891Z,46.40
2022-11-14T02:38:08.763Z,43.65
2022-11-14T02:40:35.497Z,50.15
2022-11-14T02:43:01.906Z,44.40
2022-11-14T02:45:28.274Z,49.40
2022-11-14T02:47:54.622Z,45.42
2022-11-14T02:50:21.000Z,45.88
2022-11-14T02:52:47.458Z,45.15
2022-11-14T02:55:13.828Z,51.22
2022-11-14T02:57:40.189Z,47.83
2022-11-14T03:00:13.349Z,43.35
2022-11-14T03:02:41.138Z,46.20
2022-11-14T03:05:07.767Z,42.60
2022-11-14T03:07:34.170Z,46.60
2022-11-14T03:10:00.563Z,49.65
2022-11-14T03:12:26.946Z,48.72
2022-11-14T03:14:53.313Z,46.50
2022-11-14T03:17:19.750Z,44.83
2022-11-14T03:19:46.098Z,47.95
2022-11-14T03:22:12.462Z,43.45
2022-11-14T03:24:38.810Z,48.10
2022-11-14T03:27:05.163Z,48.33
2022-11-14T03:29:31.521Z,48.28
2022-11-14T03:31:57.969Z,51.92
2022-11-14T03:34:24.350Z,51.90
2022-11-14T03:36:50.723Z,52.95
2022-11-14T03:39:17.078Z,52.22
2022-11-14T03:41:43.501Z,50.72
2022-11-14T03:44:09.991Z,50.38
2022-11-14T03:46:36.362Z,51.95
2022-11-14T03:49:03.150Z,49.80
2022-11-14T03:51:29.512Z,52.80
2022-11-14T03:53:55.877Z,55.38
2022-11-14T03:56:22.273Z,51.03
2022-11-14T03:58:48.636Z,51.75
2022-11-14T04:01:15.018Z,51.85
2022-11-14T04:03:41.397Z,51.22
2022-11-14T04:06:07.746Z,49.35
2022-11-14T04:08:34.289Z,52.72
2022-11-14T04:11:00.767Z,52.22
2022-11-14T04:13:27.136Z,58.83
2022-11-14T04:15:57.744Z,48.58
2022-11-14T04:18:25.217Z,51.67
2022-11-14T04:20:52.560Z,50.03
2022-11-14T04:23:19.467Z,55.17
2022-11-14T04:25:46.471Z,54.28
2022-11-14T04:28:13.361Z,55.35
2022-11-14T04:30:39.971Z,50.90
2022-11-14T04:33:06.346Z,51.60
2022-11-14T04:35:32.719Z,49.25
2022-11-14T04:37:59.072Z,54.95
2022-11-14T04:40:25.443Z,49.35
2022-11-14T04:42:51.794Z,49.35
2022-11-14T04:45:18.151Z,50.33
2022-11-14T04:47:44.611Z,51.42
2022-11-14T04:50:11.066Z,49.88
2022-11-14T04:52:37.438Z,56.00
2022-11-14T04:55:03.971Z,49.60
2022-11-14T04:57:30.375Z,48.50
2022-11-14T04:59:56.847Z,50.58
2022-11-14T05:02:23.234Z,50.90
2022-11-14T05:04:49.610Z,50.58
2022-11-14T05:07:16.086Z,53.17
2022-11-14T05:09:42.492Z,51.25
2022-11-14T05:12:08.896Z,51.38
2022-11-14T05:14:35.272Z,53.55
2022-11-14T05:17:01.627Z,51.25
2022-11-14T05:19:27.986Z,51.00
2022-11-14T05:21:54.337Z,49.20
2022-11-14T05:24:20.812Z,52.15
2022-11-14T05:26:47.181Z,51.92
2022-11-14T05:29:13.720Z,46.17
2022-11-14T05:31:40.103Z,49.75
2022-11-14T05:34:06.509Z,52.22
2022-11-14T05:36:32.871Z,49.10
2022-11-14T05:38:59.347Z,45.90
2022-11-14T05:41:25.742Z,45.78
2022-11-14T05:43:52.108Z,49.42
2022-11-14T05:46:18.465Z,45.67
2022-11-14T05:48:44.817Z,46.75
2022-11-14T05:51:12.695Z,48.67
2022-11-14T05:53:39.641Z,49.25
2022-11-14T05:56:09.584Z,46.90
2022-11-14T05:58:35.966Z,47.60
2022-11-14T06:01:13.917Z,49.22
2022-11-14T06:03:45.051Z,45.85
2022-11-14T06:06:15.101Z,43.40
2022-11-14T06:08:41.471Z,44.22
2022-11-14T06:11:13.264Z,47.13
2022-11-14T06:13:39.687Z,43.05
2022-11-14T06:16:26.364Z,42.33
2022-11-14T06:18:53.508Z,44.10
2022-11-14T06:21:21.572Z,42.75
2022-11-14T06:23:48.623Z,43.85
2022-11-14T06:26:20.798Z,43.00
2022-11-14T06:28:47.604Z,43.10
2022-11-14T06:31:14.013Z,41.08
2022-11-14T06:33:40.375Z,42.47
2022-11-14T06:36:07.802Z,42.65
2022-11-14T06:38:36.526Z,47.20
2022-11-14T06:41:10.709Z,44.42
2022-11-14T06:43:38.808Z,40.67
2022-11-14T06:46:06.759Z,40.97
2022-11-14T06:48:33.717Z,38.22
2022-11-14T06:51:00.556Z,36.05
2022-11-14T06:53:28.840Z,42.45
2022-11-14T06:56:03.082Z,40.10
2022-11-14T06:58:31.521Z,43.15
2022-11-14T07:01:03.952Z,45.03
2022-11-14T07:03:30.469Z,40.50
2022-11-14T07:06:04.253Z,42.40
2022-11-14T07:08:30.856Z,38.67
2022-11-14T07:11:04.698Z,38.88
2022-11-14T07:13:31.615Z,39.55
2022-11-14T07:15:58.318Z,42.10
2022-11-14T07:18:24.850Z,37.83
2022-11-14T07:20:57.422Z,41.67
2022-11-14T07:23:24.017Z,42.47
2022-11-14T07:25:50.425Z,39.40
2022-11-14T07:28:16.783Z,42.80
2022-11-14T07:30:43.138Z,35.83
2022-11-14T07:33:10.154Z,40.65
2022-11-14T07:35:39.370Z,35.40
2022-11-14T07:38:05.999Z,41.50
2022-11-14T07:40:32.417Z,38.25
2022-11-14T07:43:00.230Z,40.45
2022-11-14T07:45:27.993Z,37.08
2022-11-14T07:47:59.344Z,42.58
2022-11-14T07:50:26.515Z,38.08
2022-11-14T07:52:57.559Z,39.47
2022-11-14T07:55:24.617Z,38.13
2022-11-14T07:57:54.795Z,40.75
2022-11-14T08:00:21.744Z,37.85
2022-11-14T08:02:48.210Z,36.55
2022-11-14T08:05:14.593Z,36.78
2022-11-14T08:07:41.002Z,41.58
2022-11-14T08:10:08.064Z,40.90
2022-11-14T08:12:34.458Z,40.20
2022-11-14T08:15:00.917Z,35.10
2022-11-14T08:17:27.270Z,36.67
2022-11-14T08:19:53.631Z,37.05
2022-11-14T08:22:19.983Z,38.40
2022-11-14T08:24:46.412Z,33.88
2022-11-14T08:27:12.765Z,40.25
2022-11-14T08:29:39.179Z,38.75
2022-11-14T08:32:05.566Z,40.63
2022-11-14T08:34:31.971Z,37.72
2022-11-14T08:36:58.492Z,36.97
2022-11-14T08:39:24.868Z,36.95
2022-11-14T08:41:51.240Z,35.70
2022-11-14T08:44:17.642Z,32.08
2022-11-14T08:46:44.042Z,39.85
2022-11-14T08:49:10.394Z,36.90
2022-11-14T08:51:36.972Z,34.33
2022-11-14T08:54:03.607Z,35.78
2022-11-14T08:56:29.969Z,32.55
2022-11-14T08:58:56.426Z,32.30
2022-11-14T09:01:22.805Z,33.75
2022-11-14T09:03:49.703Z,34.15
2022-11-14T09:06:16.753Z,31.02
2022-11-14T09:08:43.182Z,30.45
2022-11-14T09:11:10.252Z,33.72
2022-11-14T09:13:37.132Z,30.70
2022-11-14T09:16:04.770Z,30.38
2022-11-14T09:18:31.808Z,26.27
2022-11-14T09:21:02.740Z,29.17
2022-11-14T09:23:29.474Z,26.35
2022-11-14T09:25:57.057Z,27.30
2022-11-14T09:28:24.192Z,26.85
2022-11-14T09:30:50.597Z,25.40
2022-11-14T09:33:17.089Z,24.05
2022-11-14T09:35:43.491Z,23.98
2022-11-14T09:38:11.465Z,26.67
2022-11-14T09:41:04.448Z,24.88
2022-11-14T09:44:01.883Z,25.38
2022-11-14T09:46:39.621Z,22.75
2022-11-14T09:49:35.392Z,21.65
2022-11-14T09:52:37.269Z,24.55
2022-11-14T09:55:17.509Z,21.92
2022-11-14T09:57:44.760Z,21.67
2022-11-14T10:00:16.580Z,20.45
2022-11-14T10:03:02.944Z,24.27
2022-11-14T10:05:42.763Z,21.75
2022-11-14T10:08:21.396Z,21.15
2022-11-14T10:10:52.351Z,18.20
2022-11-14T10:13:52.735Z,21.10
2022-11-14T10:16:32.364Z,19.42
2022-11-14T10:19:16.050Z,22.63
2022-11-14T10:22:08.535Z,19.00
2022-11-14T10:24:50.090Z,19.27
2022-11-14T10:27:24.930Z,18.23
2022-11-14T10:30:06.345Z,17.58
2022-11-14T10:32:58.085Z,19.67
2022-11-14T10:35:34.779Z,16.95
2022-11-14T10:38:07.440Z,19.33
2022-11-14T10:40:37.210Z,18.05
2022-11-14T10:43:12.481Z,18.48
2022-11-14T10:45:51.141Z,20.48
2022-11-14T10:48:33.934Z,19.52
2022-11-14T10:51:08.110Z,19.70
2022-11-14T10:53:43.639Z,19.80
2022-11-14T10:56:12.749Z,19.80
2022-11-14T10:58:48.469Z,18.83
2022-11-14T11:01:53.759Z,17.80
2022-11-14T11:04:26.801Z,19.15
2022-11-14T11:07:08.624Z,18.55
2022-11-14T11:09:55.745Z,18.52
2022-11-14T11:12:25.067Z,19.60
2022-11-14T11:15:19.460Z,20.25
2022-11-14T11:18:06.256Z,18.42
2022-11-14T11:20:32.588Z,20.30
2022-11-14T11:23:23.032Z,19.50
2022-11-14T11:26:11.359Z,18.42
2022-11-14T11:28:37.800Z,17.50
2022-11-14T11:31:06.861Z,22.05
2022-11-14T11:33:35.196Z,20.10
2022-11-14T11:36:07.864Z,21.60
2022-11-14T11:38:34.728Z,18.92
2022-11-14T11:42:07.542Z,17.90
2022-11-14T11:44:39.734Z,18.10
2022-11-14T11:47:17.011Z,19.40
2022-11-14T11:49:53.420Z,18.30
2022-11-14T11:52:37.803Z,18.80
2022-11-14T11:55:04.324Z,18.02
2022-11-14T11:57:36.966Z,21.17
2022-11-14T12:00:20.834Z,21.10
2022-11-14T12:02:52.443Z,18.63
2022-11-14T12:05:27.680Z,20.00
2022-11-14T12:10:27.437Z,21.05
2022-11-14T12:13:14.641Z,21.55
2022-11-14T12:15:56.956Z,18.40
2022-11-14T12:21:05.031Z,22.05
2022-11-14T12:23:58.953Z,22.05
2022-11-14T12:26:40.672Z,21.63
2022-11-14T12:29:35.816Z,21.08
2022-11-14T12:32:08.202Z,20.85
2022-11-14T12:34:41.310Z,19.15
2022-11-14T12:37:15.456Z,22.92
2022-11-14T12:39:41.982Z,20.08
2022-11-14T12:42:14.441Z,21.88
2022-11-14T12:44:40.955Z,19.42
2022-11-14T12:47:07.357Z,20.38
2022-11-14T12:50:06.244Z,21.17
2022-11-14T12:52:45.676Z,25.75
2022-11-14T12:55:24.210Z,20.52
2022-11-14T12:58:12.739Z,23.27
2022-11-14T13:03:24.304Z,23.90
2022-11-14T13:06:04.358Z,25.95
2022-11-14T13:08:48.966Z,25.33
2022-11-14T13:11:53.215Z,23.60
2022-11-14T13:14:39.010Z,27.40
2022-11-14T13:17:42.016Z,28.30
2022-11-14T13:20:42.799Z,33.13
2022-11-14T13:23:30.761Z,33.30
2022-11-14T13:26:09.542Z,31.60
2022-11-14T13:28:38.984Z,30.55
2022-11-14T13:31:17.175Z,26.98
2022-11-14T13:33:52.416Z,27.88
2022-11-14T13:36:34.931Z,32.45
2022-11-14T13:39:33.823Z,34.42
2022-11-14T13:42:37.991Z,32.28
2022-11-14T13:45:25.242Z,33.35
2022-11-14T13:48:08.482Z,30.00
2022-11-14T13:50:40.351Z,35.63
2022-11-14T13:53:15.822Z,29.35
2022-11-14T13:56:00.408Z,34.58
2022-11-14T13:58:26.760Z,25.80
2022-11-14T14:01:12.445Z,28.67
2022-11-14T14:04:02.811Z,32.17
2022-11-14T14:06:57.875Z,30.55
2022-11-14T14:09:42.546Z,29.35
2022-11-14T14:12:19.292Z,31.60
2022-11-14T14:15:04.573Z,33.80
2022-11-14T14:17:36.884Z,30.75
2022-11-14T14:20:09.451Z,32.70
2022-11-14T14:23:01.075Z,32.20
2022-11-14T14:25:34.671Z,30.75
2022-11-14T14:28:24.147Z,32.25
2022-11-14T14:31:12.956Z,32.83
2022-11-14T14:33:43.787Z,30.23
2022-11-14T14:36:18.400Z,31.90
2022-11-14T14:38:45.395Z,32.28
2022-11-14T14:41:14.225Z,32.03
2022-11-14T14:43:42.330Z,32.33
2022-11-14T14:46:08.772Z,34.88
2022-11-14T14:48:36.478Z,33.83
2022-11-14T14:51:05.067Z,33.25
2022-11-14T14:53:35.804Z,34.40
2022-11-14T14:56:05.628Z,36.53
2022-11-14T14:58:33.936Z,34.80
2022-11-14T15:01:06.529Z,36.88
2022-11-14T15:03:37.204Z,42.40
2022-11-14T15:06:33.686Z,40.65
2022-11-14T15:09:03.691Z,41.67
2022-11-14T15:14:00.679Z,45.53
2022-11-14T15:16:27.763Z,41.60
2022-11-14T15:18:55.555Z,45.03
2022-11-14T15:21:23.088Z,44.58
2022-11-14T15:24:02.019Z,41.88
2022-11-14T15:26:30.347Z,49.05
2022-11-14T15:29:27.149Z,44.72
2022-11-14T15:31:58.851Z,40.45
2022-11-14T15:34:29.506Z,45.30
2022-11-14T15:37:25.269Z,50.33
2022-11-14T15:39:51.641Z,44.47
2022-11-14T15:42:21.063Z,42.40
2022-11-14T15:44:48.947Z,42.65
2022-11-14T15:47:22.782Z,43.22
2022-11-14T15:50:02.555Z,42.45
2022-11-14T15:52:40.872Z,40.25
2022-11-14T15:55:18.872Z,41.35
2022-11-14T15:57:51.692Z,40.83
2022-11-14T16:00:23.006Z,39.97
2022-11-14T16:02:52.978Z,41.55
2022-11-14T16:05:23.725Z,38.50
2022-11-14T16:07:50.083Z,42.38
2022-11-14T16:10:21.948Z,41.95
2022-11-14T16:12:52.406Z,41.20
2022-11-14T16:15:20.912Z,41.83
2022-11-14T16:17:49.131Z,46.40
2022-11-14T16:20:18.839Z,41.28
2022-11-14T16:22:49.558Z,39.10
2022-11-14T16:25:19.045Z,42.45
2022-11-14T16:27:45.722Z,43.42
2022-11-14T16:30:13.465Z,43.88
2022-11-14T16:32:41.028Z,43.78
2022-11-14T16:35:12.679Z,40.33
2022-11-14T16:37:39.035Z,38.63
2022-11-14T16:40:06.603Z,42.40
2022-11-14T16:42:33.143Z,44.05
2022-11-14T16:45:03.224Z,41.25
2022-11-14T16:50:05.133Z,45.95
2022-11-14T16:52:31.584Z,41.35
2022-11-14T16:54:58.027Z,45.08
2022-11-14T16:57:24.736Z,43.30
2022-11-14T16:59:54.008Z,44.55
2022-11-14T17:02:21.148Z,47.22
2022-11-14T17:04:47.672Z,40.92
2022-11-14T17:07:16.655Z,41.45
2022-11-14T17:09:45.493Z,44.88
2022-11-14T17:12:16.366Z,50.13
2022-11-14T17:14:42.897Z,41.60
2022-11-14T17:17:09.292Z,45.78
2022-11-14T17:19:35.676Z,43.75
2022-11-14T17:22:02.065Z,43.00
2022-11-14T17:24:39.382Z,43.20
2022-11-14T17:27:05.904Z,41.45
2022-11-14T17:29:32.286Z,48.65
2022-11-14T17:31:58.685Z,43.50
2022-11-14T17:34:25.123Z,47.00
2022-11-14T17:36:51.528Z,46.33
2022-11-14T17:39:17.932Z,58.70
2022-11-14T17:41:44.309Z,52.58
2022-11-14T17:44:10.695Z,49.22
2022-11-14T17:46:37.122Z,51.33
2022-11-14T17:49:03.685Z,61.90
2022-11-14T17:51:30.152Z,45.67
2022-11-14T17:53:56.554Z,51.75
2022-11-14T17:56:24.503Z,47.72
2022-11-14T17:58:52.496Z,85.75
2022-11-14T18:01:22.432Z,73.63
2022-11-14T18:03:49.118Z,85.90
2022-11-14T18:06:19.069Z,74.57
2022-11-14T18:08:46.166Z,59.42
2022-11-14T18:11:14.836Z,53.08
2022-11-14T18:13:41.686Z,49.03
2022-11-14T18:16:11.713Z,50.55
2022-11-14T18:18:39.011Z,57.03
2022-11-14T18:21:26.321Z,55.70
2022-11-14T18:27:04.755Z,52.90
2022-11-14T18:46:49.733Z,47.00
2022-11-14T18:49:28.189Z,41.33
2022-11-14T18:51:56.328Z,43.05
2022-11-14T18:54:23.980Z,43.17
2022-11-14T18:56:50.717Z,40.63
2022-11-14T18:59:17.720Z,41.75
2022-11-14T19:01:44.203Z,43.60
2022-11-14T19:04:11.572Z,39.80
2022-11-14T19:06:39.584Z,42.55
2022-11-14T19:09:11.766Z,41.60
2022-11-14T19:11:57.500Z,45.08
2022-11-14T19:14:24.010Z,38.03
2022-11-14T19:16:50.473Z,39.47
2022-11-14T19:19:16.963Z,35.35
2022-11-14T19:21:43.464Z,36.20
2022-11-14T19:24:10.069Z,35.28
2022-11-14T19:26:36.506Z,32.72
2022-11-14T19:29:09.325Z,37.13
2022-11-14T19:31:36.147Z,30.50
2022-11-14T19:34:02.746Z,29.33
2022-11-14T19:36:57.730Z,30.95
2022-11-14T19:39:15.455Z,28.27
2022-11-14T19:41:41.901Z,29.40
2022-11-14T19:44:08.501Z,30.58
2022-11-14T19:46:36.643Z,27.98
2022-11-14T19:49:03.851Z,32.08
2022-11-14T19:51:31.057Z,30.13
2022-11-14T19:53:58.491Z,31.55
2022-11-14T19:56:25.016Z,28.05
2022-11-14T19:58:53.036Z,29.25
2022-11-14T20:01:21.576Z,26.75
2022-11-14T20:03:52.328Z,26.70
2022-11-14T20:06:29.939Z,27.40
2022-11-14T20:08:57.734Z,25.92
2022-11-14T20:11:27.006Z,27.55
2022-11-14T20:13:53.363Z,23.65
2022-11-14T20:16:22.155Z,23.05
2022-11-14T20:18:53.262Z,26.13
2022-11-14T20:21:24.354Z,23.02
2022-11-14T20:23:51.300Z,22.67
2022-11-14T20:26:19.740Z,24.00
2022-11-14T20:28:47.229Z,20.42
2022-11-14T20:31:15.923Z,24.85
2022-11-14T20:33:44.992Z,29.08
2022-11-14T20:36:13.751Z,30.63
2022-11-14T20:38:40.434Z,30.02
2022-11-14T20:41:06.819Z,27.85
2022-11-14T20:43:34.297Z,27.77
2022-11-14T20:46:12.218Z,27.92
2022-11-14T20:48:39.062Z,27.80
2022-11-14T20:51:10.719Z,25.77
2022-11-14T20:53:37.254Z,27.08
2022-11-14T20:56:04.039Z,21.75
2022-11-14T20:58:31.316Z,22.95
2022-11-14T21:00:57.711Z,23.17
2022-11-14T21:03:24.272Z,21.48
2022-11-14T21:05:50.652Z,22.80
2022-11-14T21:08:17.189Z,23.08
2022-11-14T21:10:45.855Z,24.75
2022-11-14T21:13:43.124Z,23.50
2022-11-14T21:16:14.814Z,23.85
2022-11-14T21:18:45.162Z,25.10
2022-11-14T21:21:17.084Z,25.70
2022-11-14T21:23:44.541Z,22.65
2022-11-14T21:26:16.447Z,23.52
2022-11-14T21:28:44.514Z,30.75
2022-11-14T21:31:20.045Z,29.88
2022-11-14T21:33:48.024Z,30.10
2022-11-14T21:36:44.237Z,30.85
2022-11-14T21:39:01.714Z,28.80
2022-11-14T21:41:29.273Z,30.85
2022-11-14T21:43:57.194Z,30.92
2022-11-14T21:46:24.583Z,29.08
2022-11-14T21:48:51.561Z,31.15
2022-11-14T21:51:23.324Z,29.27
2022-11-14T21:53:58.074Z,31.10
2022-11-14T21:56:29.843Z,30.08
2022-11-14T21:59:12.676Z,29.55
2022-11-14T22:01:59.220Z,29.92
2022-11-14T22:04:25.966Z,30.25
2022-11-14T22:06:52.602Z,30.92
2022-11-14T22:09:18.988Z,32.63
2022-11-14T22:11:45.348Z,29.00
2022-11-14T22:14:11.699Z,28.08
2022-11-14T22:16:38.335Z,32.15
2022-11-14T22:19:05.833Z,30.73
2022-11-14T22:21:32.438Z,28.35
2022-11-14T22:23:58.792Z,28.45
2022-11-14T22:26:25.429Z,29.35
2022-11-14T22:28:51.788Z,35.78
2022-11-14T22:31:20.567Z,31.15
2022-11-14T22:33:48.696Z,27.83
2022-11-14T22:36:19.128Z,29.08
2022-11-14T22:38:46.193Z,31.05
2022-11-14T22:41:14.020Z,29.23
2022-11-14T22:43:40.651Z,33.28
2022-11-14T22:46:07.079Z,32.17
2022-11-14T22:48:34.066Z,30.60
2022-11-14T22:51:06.927Z,27.67
2022-11-14T22:53:34.822Z,32.17
2022-11-14T22:56:01.708Z,29.73
2022-11-14T22:58:36.372Z,30.75
2022-11-14T23:01:12.736Z,29.20
2022-11-14T23:03:40.182Z,31.50
2022-11-14T23:06:11.721Z,30.33
2022-11-14T23:08:38.273Z,31.20
2022-11-14T23:11:07.093Z,36.40
2022-11-14T23:13:41.518Z,33.00
2022-11-14T23:16:12.421Z,31.92
2022-11-14T23:18:38.791Z,33.85
2022-11-14T23:21:12.621Z,30.67
2022-11-14T23:23:39.340Z,34.63
2022-11-14T23:26:16.471Z,30.55
2022-11-14T23:28:42.949Z,35.45
2022-11-14T23:31:10.555Z,34.38
2022-11-14T23:33:37.201Z,35.67
2022-11-14T23:36:04.075Z,30.33
2022-11-14T23:38:30.931Z,34.70
2022-11-14T23:40:59.373Z,32.42
2022-11-14T23:43:26.207Z,34.85
2022-11-14T23:45:52.744Z,38.08
2022-11-14T23:48:20.576Z,36.58
2022-11-14T23:50:54.993Z,37.92
2022-11-14T23:53:22.004Z,34.40
2022-11-14T23:55:55.760Z,35.17
2022-11-14T23:58:22.561Z,38.10
